aviador You're here:

OIAW Decoded Metar

AHWAZ in IRAN
Report Time2017-05-26 12:21:00
UTC Time2017-05-26 13:04:23
Flight Rules vfr VFR
Wind010° at 04 kt
W.Decomp.*RWY 30: 1.6 kt HW 3.7 kt RCW
W.Rank010° ranks 36
Current wind is below 010° avg. (4.4)
Visibility9999 m
Phenomena:N/A
Clouds:N/A
Expected CloudBase > 13,200 ft AGL from Temp-Dew spread
CeilingNone
Temp44°C (ISA +29)
Dew Point11°C (14% RH)
Heat Index42.6°C
AAT42.7°C
QNH1003 hPa
Density Alt3,832 ft
Elevation72 ft
Report Wrong Elevation
Raw Report
METAR OIAW 261221Z 01004KT CAVOK 44/11 Q1003=

Extra information for OIAW:More info

Metar Taf Metar & Taf Last 4 Metars F.Rules Stats Wind Profile Meteogram Temp Stats Airport Information Weather charts Add Link Nearby VenuesMetar ALERT Operation Metar Decoded Social comments